Dukinfield, United Kingdom
Current Conditions -  °F | °C
As of 7:20 PM on Saturday 20 Dec 2014 (Local Time) from EGCC Reporting Station
Broken Clouds Broken Clouds  
Wind Chill:   Ceiling: 1500
Heat Index:   Visibility: 6mi
Dew Point:   Wind: 10mph
Humidity: 87%   Direction: 260°W
Pressure: 30.36"   Gusts: NA
Location:  53.47°N, 2.09°W
Report Text: EGCC 201920Z AUTO 26009KT 9999 BKN015 BKN020 07/05 Q1028
Loading
Personal Weather Stations






























Interactive Weather Map New forecast layout! Learn more

10-Day Weather Forecast

Advertisements
Track Severe Weather on mobile